Pagrindinis puslapis
METAR-TAF:

METAR-TAF

Oro uostai :

Stambulas, Turkija

platuma: 41-16-31N, ilguma: 028-45-07E, Aukštis: 99 m

Dabartinis oras

Ataskaita buvo paskelbta 39 minutes, ne 19:20 UTC
Vėjas 15 kt iš Rytų/Šiaurės Rytų
Temperatūra 25°C
Drėgmė 79%
Slėgis 1016 hPa
Matomumas 10 km arba daugiau
Išsisklaidę debesys ne aukštis 2200 ft

METAR: LTFM 131920Z 07015KT 9999 SCT022 25/21 Q1016 NOSIG RMK RWY17L 07015KT RWY34L 07015KT RWY16R 07016KT RWY36 07014KT 030V090 RWY18 08014KT

Laikas: 22:59 (19:59 UTC)

Prognozė

Ataskaita buvo paskelbta 3 valandos ir 19 minutes, ne 16:40 UTC
Prognozė galioja nuo 13 metu 18 UTC su 14 metu 24 UTC
Vėjas 13 kt iš Šiaurės Rytų
Matomumas 10 km arba daugiau
Išsisklaidę debesys ne aukštis 2500 ft
Tapsmas
nuo 13 metu 18 UTC su 13 metu 21 UTC
Matomumas 10 km arba daugiau
nėra debesų žemiau 1500 m ir nėra kamuolinių lietaus debesų

TAF: LTFM 131640Z 1318/1424 05013KT 9999 SCT025 BECMG 1318/1321 CAVOK

Orai ataskaitas ir orų prognozės (METAR, TAF).

turimą stotys yra geltonos ir raudonos taškus žemėlapyje.

Perkelti pele per norėdami pamatyti stoties vardą.

Tada spustelėkite, norėdami matyti oro stebėjimo ir prognozės.

Norėdami pakeisti žemėlapį: spustelėkite ant žalios mygtukų su juodo kryžiaus žemyn,; žalią mygtuką su brūkšneliu, jei norite nutolinti; arba žalių rodyklių gretimoms žemėlapius.


METAR-TAF: